Time;durP1;ratioP1;P1;durP2;ratioP2;P2;SDS_P1;SDS_P2;PMS_P1;PMS_P2;Temp;Humidity;BMP_temperature;BMP_pressure;BME280_temperature;BME280_humidity;BME280_pressure;Samples;Min_cycle;Max_cycle;Signal;HPM_P1;HPM_P2
2021/04/24 00:00:27;;;;;;;14.07;6.67;;;9.20;1.00;;;;;;5071940;28;20183;-80
2021/04/24 00:02:53;;;;;;;12.03;6.50;;;9.20;1.00;;;;;;5072193;28;20206;-82
2021/04/24 00:05:29;;;;;;;11.27;6.33;;;9.20;1.00;;;;;;5072148;28;20183;-81
2021/04/24 00:08:03;;;;;;;15.07;7.20;;;9.10;1.00;;;;;;5072156;28;20168;-79
2021/04/24 00:10:31;;;;;;;9.80;6.37;;;9.10;1.00;;;;;;5071734;28;20168;-80
2021/04/24 00:12:58;;;;;;;12.70;6.77;;;9.10;1.00;;;;;;5072355;28;20196;-80
2021/04/24 00:15:24;;;;;;;11.50;6.60;;;9.00;1.00;;;;;;5072308;28;20169;-80
2021/04/24 00:17:50;;;;;;;16.90;6.60;;;9.00;1.00;;;;;;5072380;28;20267;-78
2021/04/24 00:20:19;;;;;;;11.27;7.47;;;8.90;1.00;;;;;;5071683;28;20202;-79
2021/04/24 00:22:45;;;;;;;15.23;6.30;;;8.90;1.00;;;;;;5072129;28;20164;-78
2021/04/24 00:25:11;;;;;;;11.13;6.93;;;8.90;1.00;;;;;;5072425;28;20175;-80
2021/04/24 00:27:37;;;;;;;11.93;7.43;;;8.90;1.00;;;;;;5071409;28;20176;-79
2021/04/24 00:30:05;;;;;;;11.87;7.23;;;8.80;1.00;;;;;;5072039;28;20546;-79
2021/04/24 00:32:31;;;;;;;16.27;7.60;;;8.70;1.00;;;;;;5074989;28;20216;-79
2021/04/24 00:34:56;;;;;;;15.37;7.80;;;8.80;1.00;;;;;;5075657;28;20169;-78
2021/04/24 00:37:22;;;;;;;11.50;7.37;;;8.70;1.00;;;;;;5075339;28;20509;-81
2021/04/24 00:39:48;;;;;;;15.13;7.83;;;8.70;1.00;;;;;;5075780;28;20631;-78
2021/04/24 00:42:13;;;;;;;14.73;7.70;;;8.80;1.00;;;;;;5075590;28;20282;-82
2021/04/24 00:44:47;;;;;;;13.43;7.50;;;8.70;1.00;;;;;;5075409;28;20255;-80
2021/04/24 00:47:13;;;;;;;12.80;7.10;;;8.70;1.00;;;;;;5075877;28;20196;-82
2021/04/24 00:49:39;;;;;;;12.77;7.40;;;8.60;1.00;;;;;;5075099;28;20164;-80
2021/04/24 00:52:05;;;;;;;17.30;8.20;;;8.60;1.00;;;;;;5075317;28;20207;-77
2021/04/24 00:54:31;;;;;;;14.27;8.07;;;8.60;1.00;;;;;;5075262;28;20217;-80
2021/04/24 00:56:57;;;;;;;13.43;7.53;;;8.60;1.00;;;;;;5075926;28;20259;-82
2021/04/24 00:59:23;;;;;;;11.80;7.07;;;8.50;1.00;;;;;;5075471;28;20272;-79
2021/04/24 01:01:49;;;;;;;16.60;8.40;;;8.50;1.00;;;;;;5075311;28;20176;-79
2021/04/24 01:04:14;;;;;;;13.90;7.27;;;8.50;1.00;;;;;;5075544;28;20180;-80
2021/04/24 01:06:40;;;;;;;12.33;7.93;;;8.40;1.00;;;;;;5073604;28;20176;-80
2021/04/24 01:09:06;;;;;;;17.77;8.37;;;8.40;1.00;;;;;;5075504;28;20180;-80
2021/04/24 01:11:32;;;;;;;12.70;7.17;;;8.40;1.00;;;;;;5075509;28;20195;-80
2021/04/24 01:13:58;;;;;;;16.90;8.90;;;8.30;1.00;;;;;;5075668;28;20178;-78
2021/04/24 01:16:24;;;;;;;17.17;7.67;;;8.30;1.00;;;;;;5075024;28;20247;-81
2021/04/24 01:18:52;;;;;;;13.33;7.37;;;8.20;1.00;;;;;;5075204;28;20284;-81
2021/04/24 01:21:23;;;;;;;14.17;8.00;;;8.20;2.80;;;;;;5074986;28;20215;-78
2021/04/24 01:23:52;;;;;;;15.90;8.03;;;8.10;7.50;;;;;;5074832;28;20202;-81
2021/04/24 01:26:18;;;;;;;14.80;8.07;;;8.20;5.90;;;;;;5075401;28;20200;-80
2021/04/24 01:28:44;;;;;;;14.57;8.03;;;8.10;8.00;;;;;;5074983;28;20196;-81
2021/04/24 01:31:10;;;;;;;18.57;8.60;;;8.10;9.10;;;;;;5074610;28;20617;-80
2021/04/24 01:33:36;;;;;;;14.00;7.37;;;8.00;14.30;;;;;;5075226;28;20204;-80
2021/04/24 01:36:02;;;;;;;15.27;8.70;;;8.00;15.10;;;;;;5074939;28;20244;-82
2021/04/24 01:38:27;;;;;;;14.60;8.20;;;8.00;16.40;;;;;;5075198;28;20214;-80
2021/04/24 01:40:53;;;;;;;12.63;7.13;;;8.00;17.90;;;;;;5074110;28;20176;-78
2021/04/24 01:43:19;;;;;;;15.37;8.40;;;8.00;17.90;;;;;;5074319;28;20210;-78
2021/04/24 01:45:45;;;;;;;12.87;7.53;;;8.00;19.40;;;;;;5074645;28;20172;-82
2021/04/24 01:48:11;;;;;;;15.50;8.33;;;8.00;17.70;;;;;;5074597;28;20252;-79
2021/04/24 01:50:40;;;;;;;15.13;7.60;;;8.00;19.10;;;;;;5074519;28;20646;-80
2021/04/24 01:53:09;;;;;;;15.97;7.93;;;7.90;20.00;;;;;;5074681;28;20200;-79
2021/04/24 01:55:36;;;;;;;13.63;8.03;;;7.90;18.00;;;;;;5074697;28;20203;-78
2021/04/24 01:58:09;;;;;;;13.03;8.53;;;7.90;17.50;;;;;;5073250;28;20199;-82
2021/04/24 02:00:45;;;;;;;14.23;8.23;;;8.00;17.50;;;;;;5073871;28;20176;-82
2021/04/24 02:03:13;;;;;;;14.07;8.23;;;8.00;15.20;;;;;;5073123;28;20207;-80
2021/04/24 02:05:41;;;;;;;15.13;8.57;;;7.90;17.10;;;;;;5073797;28;20172;-82
2021/04/24 02:08:08;;;;;;;12.73;7.53;;;8.00;16.80;;;;;;5072439;28;20172;-80
2021/04/24 02:10:36;;;;;;;15.70;8.37;;;7.90;16.30;;;;;;5073172;28;20168;-79
2021/04/24 02:13:06;;;;;;;14.43;8.87;;;8.00;16.90;;;;;;5074300;28;20211;-80
2021/04/24 02:15:31;;;;;;;13.17;8.93;;;7.90;16.40;;;;;;5074293;28;20651;-79
2021/04/24 02:17:57;;;;;;;12.20;8.97;;;7.90;20.80;;;;;;5073758;28;20172;-77
2021/04/24 02:20:23;;;;;;;15.23;7.93;;;7.90;19.00;;;;;;5074048;28;20656;-79
2021/04/24 02:22:48;;;;;;;14.03;8.07;;;7.90;18.30;;;;;;5073330;28;20246;-79
2021/04/24 02:25:17;;;;;;;16.83;8.17;;;7.90;17.10;;;;;;5074295;28;20735;-79
2021/04/24 02:27:43;;;;;;;14.73;8.70;;;7.90;15.60;;;;;;5072500;28;20164;-82
2021/04/24 02:30:11;;;;;;;17.37;9.30;;;7.90;14.90;;;;;;5073665;28;20184;-80
2021/04/24 02:32:38;;;;;;;14.60;8.77;;;7.90;13.40;;;;;;5071985;28;20266;-81
2021/04/24 02:35:06;;;;;;;16.43;9.57;;;7.90;14.30;;;;;;5073858;28;20195;-81
2021/04/24 02:37:32;;;;;;;15.07;8.40;;;7.80;13.70;;;;;;5072663;28;20204;-81
2021/04/24 02:39:58;;;;;;;13.97;8.20;;;7.80;11.40;;;;;;5073817;28;20247;-79
2021/04/24 02:42:26;;;;;;;15.20;9.23;;;7.80;10.30;;;;;;5073149;28;20255;-80
2021/04/24 02:44:57;;;;;;;12.80;7.70;;;7.80;8.50;;;;;;5073925;28;20169;-79
2021/04/24 02:47:24;;;;;;;14.20;8.60;;;7.70;14.20;;;;;;5073375;28;20164;-80
2021/04/24 02:49:50;;;;;;;14.37;8.37;;;7.70;18.90;;;;;;5073709;28;20196;-80
2021/04/24 02:52:17;;;;;;;12.87;8.03;;;7.60;18.40;;;;;;5072053;28;20226;-81
2021/04/24 02:54:43;;;;;;;12.23;7.90;;;7.60;20.70;;;;;;5072849;28;20214;-81
2021/04/24 02:57:08;;;;;;;17.27;8.17;;;7.70;17.60;;;;;;5073371;28;20171;-78
2021/04/24 02:59:34;;;;;;;13.37;7.63;;;7.60;17.20;;;;;;5074120;28;20217;-78
2021/04/24 03:02:00;;;;;;;16.27;8.80;;;7.50;20.40;;;;;;5074565;28;20172;-79
2021/04/24 03:04:26;;;;;;;14.00;8.80;;;7.50;21.90;;;;;;5077763;28;20179;-81
2021/04/24 03:06:52;;;;;;;17.43;8.90;;;7.50;21.30;;;;;;5072296;28;20180;-79
2021/04/24 03:09:18;;;;;;;15.57;8.23;;;7.60;19.70;;;;;;5073317;28;20179;-80
2021/04/24 03:11:44;;;;;;;13.07;7.90;;;7.60;15.80;;;;;;5073220;28;20261;-81
2021/04/24 03:14:09;;;;;;;12.43;8.13;;;7.60;10.10;;;;;;5073358;28;20243;-80
2021/04/24 03:16:37;;;;;;;16.43;8.43;;;7.60;10.80;;;;;;5073175;28;20641;-81
2021/04/24 03:19:04;;;;;;;15.70;8.43;;;7.40;18.40;;;;;;5073086;28;20175;-77
2021/04/24 03:21:29;;;;;;;18.93;9.50;;;7.40;21.20;;;;;;5073202;28;20210;-78
2021/04/24 03:23:55;;;;;;;14.10;8.53;;;7.40;18.50;;;;;;5072306;28;20168;-81
2021/04/24 03:26:22;;;;;;;14.67;9.27;;;7.30;18.10;;;;;;5073102;28;20192;-78
2021/04/24 03:28:49;;;;;;;14.80;9.20;;;7.30;18.80;;;;;;5072701;28;20646;-80
2021/04/24 03:31:15;;;;;;;13.50;8.40;;;7.20;20.30;;;;;;5072616;28;20184;-80
2021/04/24 03:33:41;;;;;;;13.33;8.67;;;7.20;23.60;;;;;;5072357;28;20749;-81
2021/04/24 03:36:07;;;;;;;13.57;8.23;;;7.10;23.80;;;;;;5073066;28;20168;-80
2021/04/24 03:38:34;;;;;;;16.40;8.53;;;7.00;29.40;;;;;;5072818;28;20175;-78
2021/04/24 03:41:00;;;;;;;13.23;8.57;;;7.00;30.70;;;;;;5072191;28;20183;-78
2021/04/24 03:43:25;;;;;;;13.00;8.03;;;7.00;33.10;;;;;;5072684;28;20168;-79
2021/04/24 03:45:51;;;;;;;15.37;7.97;;;7.00;30.00;;;;;;5072945;28;20164;-80
2021/04/24 03:48:16;;;;;;;16.87;9.23;;;7.00;30.00;;;;;;5072605;28;20200;-80
2021/04/24 03:50:42;;;;;;;15.53;8.37;;;7.00;29.20;;;;;;5070763;28;20172;-79
2021/04/24 03:53:08;;;;;;;15.50;8.10;;;7.00;28.10;;;;;;5071380;28;20216;-78
2021/04/24 03:55:34;;;;;;;11.03;8.07;;;6.90;30.60;;;;;;5071701;28;20267;-78
2021/04/24 03:58:00;;;;;;;15.43;8.90;;;6.90;30.00;;;;;;5071078;28;20632;-79
2021/04/24 04:00:29;;;;;;;13.80;8.03;;;6.80;33.70;;;;;;5072500;28;20321;-81
2021/04/24 04:02:59;;;;;;;12.37;7.50;;;6.80;32.50;;;;;;5072764;28;20176;-79
2021/04/24 04:05:27;;;;;;;14.97;8.40;;;6.80;30.00;;;;;;5070617;28;20553;-81
2021/04/24 04:07:53;;;;;;;15.37;8.73;;;6.80;29.30;;;;;;5076314;28;20177;-80
2021/04/24 04:10:19;;;;;;;13.43;8.50;;;6.70;32.40;;;;;;5076222;28;20175;-79
2021/04/24 04:12:48;;;;;;;15.97;7.77;;;6.70;29.00;;;;;;5076346;28;20211;-80
2021/04/24 04:15:15;;;;;;;13.60;8.43;;;6.70;28.10;;;;;;5076079;28;20169;-81
2021/04/24 04:17:42;;;;;;;14.13;7.47;;;6.70;24.80;;;;;;5076517;28;20199;-81
2021/04/24 04:20:11;;;;;;;11.87;8.23;;;6.70;26.40;;;;;;5076497;28;20207;-81
2021/04/24 04:22:37;;;;;;;14.33;7.90;;;6.70;25.40;;;;;;5075853;28;20255;-81
2021/04/24 04:25:06;;;;;;;14.23;8.03;;;6.70;22.00;;;;;;5075865;28;20642;-77
2021/04/24 04:27:32;;;;;;;12.07;8.07;;;6.70;11.60;;;;;;5075849;28;20711;-80
2021/04/24 04:29:58;;;;;;;13.50;7.40;;;6.70;4.70;;;;;;5076180;28;20251;-77
2021/04/24 04:32:23;;;;;;;11.93;7.30;;;6.70;1.00;;;;;;5074117;28;20306;-80
2021/04/24 04:34:49;;;;;;;12.27;7.57;;;6.70;1.00;;;;;;5076200;28;20248;-82
2021/04/24 04:37:15;;;;;;;11.33;7.60;;;6.80;1.00;;;;;;5076214;28;20175;-81
2021/04/24 04:39:41;;;;;;;14.67;7.93;;;6.80;1.00;;;;;;5075102;28;20653;-79
2021/04/24 04:42:07;;;;;;;11.50;7.33;;;6.80;1.00;;;;;;5075820;28;20251;-82
2021/04/24 04:44:33;;;;;;;11.83;7.27;;;6.80;1.00;;;;;;5075906;28;20178;-82
2021/04/24 04:47:00;;;;;;;10.30;6.87;;;6.80;1.00;;;;;;5076084;28;20160;-79
2021/04/24 04:49:26;;;;;;;13.40;7.60;;;6.80;1.00;;;;;;5074866;28;20172;-80
2021/04/24 04:51:52;;;;;;;14.53;6.87;;;6.70;1.00;;;;;;5075862;28;20344;-79
2021/04/24 04:54:17;;;;;;;13.73;7.00;;;6.70;1.00;;;;;;5075819;28;20279;-80
2021/04/24 04:56:43;;;;;;;10.37;6.93;;;6.70;1.00;;;;;;5075677;28;20164;-81
2021/04/24 04:59:08;;;;;;;10.73;6.80;;;6.60;1.00;;;;;;5074932;28;20179;-79
2021/04/24 05:01:34;;;;;;;12.00;6.83;;;6.70;1.00;;;;;;5075321;28;20172;-78
2021/04/24 05:04:00;;;;;;;14.00;6.87;;;6.80;1.00;;;;;;5075760;28;20180;-78
2021/04/24 05:06:25;;;;;;;10.67;6.73;;;6.80;1.00;;;;;;5074859;28;20221;-80
2021/04/24 05:08:51;;;;;;;11.97;7.27;;;6.80;1.00;;;;;;5075275;28;20218;-81
2021/04/24 05:11:17;;;;;;;14.00;6.77;;;6.80;1.00;;;;;;5075325;28;20218;-80
2021/04/24 05:13:42;;;;;;;11.70;6.80;;;6.80;1.00;;;;;;5075788;28;20181;-81
2021/04/24 05:16:09;;;;;;;9.57;6.20;;;6.80;1.00;;;;;;5074308;28;20192;-79
2021/04/24 05:18:35;;;;;;;12.13;6.90;;;6.80;1.00;;;;;;5074361;28;20576;-79
2021/04/24 05:21:01;;;;;;;10.27;6.10;;;6.70;1.00;;;;;;5075348;28;20188;-80
2021/04/24 05:23:27;;;;;;;14.07;7.10;;;6.70;1.00;;;;;;5075162;28;20168;-82
2021/04/24 05:25:53;;;;;;;12.20;7.37;;;6.70;1.00;;;;;;5074375;28;20168;-81
2021/04/24 05:28:18;;;;;;;9.97;6.03;;;6.70;1.00;;;;;;5074805;28;20168;-80
2021/04/24 05:30:44;;;;;;;13.93;7.30;;;6.70;1.00;;;;;;5075037;28;20177;-80
2021/04/24 05:33:09;;;;;;;12.67;6.90;;;6.70;1.00;;;;;;5073571;28;20272;-79
2021/04/24 05:35:35;;;;;;;10.20;7.00;;;6.70;1.00;;;;;;5072750;28;20255;-80
2021/04/24 05:38:01;;;;;;;12.43;6.53;;;6.80;1.00;;;;;;5073724;28;20628;-79
2021/04/24 05:40:27;;;;;;;13.10;7.20;;;6.80;1.00;;;;;;5074515;28;20267;-80
2021/04/24 05:42:53;;;;;;;11.90;7.47;;;6.80;1.00;;;;;;5074289;28;20644;-80
2021/04/24 05:45:18;;;;;;;15.13;7.83;;;6.80;1.00;;;;;;5073546;28;20182;-81
2021/04/24 05:47:49;;;;;;;12.63;7.37;;;6.90;1.00;;;;;;5074851;28;20176;-79
2021/04/24 05:50:18;;;;;;;11.43;6.87;;;6.90;1.00;;;;;;5074857;28;20173;-79
2021/04/24 05:52:44;;;;;;;11.70;7.13;;;6.90;1.00;;;;;;5073818;28;20257;-81
2021/04/24 05:55:11;;;;;;;11.07;7.13;;;6.90;1.00;;;;;;5074756;28;20203;-79
2021/04/24 05:57:38;;;;;;;13.13;7.07;;;6.90;1.00;;;;;;5074528;28;20175;-78
2021/04/24 06:00:10;;;;;;;12.67;7.67;;;6.90;1.00;;;;;;5074031;28;20730;-79
2021/04/24 06:02:35;;;;;;;14.93;7.00;;;6.90;1.00;;;;;;5074504;28;20229;-82
2021/04/24 06:05:03;;;;;;;13.37;7.30;;;6.90;1.00;;;;;;5074183;28;20562;-81
2021/04/24 06:07:29;;;;;;;12.13;7.43;;;7.00;1.00;;;;;;5073816;28;20167;-82
2021/04/24 06:09:57;;;;;;;15.07;6.60;;;7.10;1.00;;;;;;5073826;28;20218;-81
2021/04/24 06:12:23;;;;;;;11.17;7.23;;;7.20;1.00;;;;;;5073853;28;20715;-80
2021/04/24 06:14:51;;;;;;;14.07;6.77;;;7.20;1.00;;;;;;5074264;28;20164;-80
2021/04/24 06:17:19;;;;;;;13.23;7.33;;;7.20;1.00;;;;;;5072446;28;20612;-81
2021/04/24 06:19:45;;;;;;;15.60;8.53;;;7.20;1.00;;;;;;5072632;28;20636;-80
2021/04/24 06:22:11;;;;;;;11.40;7.47;;;7.30;1.00;;;;;;5072093;28;20226;-79
2021/04/24 06:24:36;;;;;;;11.30;6.90;;;7.40;1.00;;;;;;5073183;28;20361;-80
2021/04/24 06:27:02;;;;;;;11.13;7.20;;;7.40;1.00;;;;;;5073997;28;20171;-79
2021/04/24 06:29:28;;;;;;;13.73;6.37;;;7.50;1.00;;;;;;5073389;28;20164;-81
2021/04/24 06:31:53;;;;;;;12.83;7.47;;;7.40;1.00;;;;;;5073663;28;20639;-81
2021/04/24 06:34:19;;;;;;;14.50;7.20;;;7.50;1.00;;;;;;5074402;28;20575;-81
2021/04/24 06:36:45;;;;;;;14.50;6.93;;;7.50;1.00;;;;;;5074570;28;20291;-82
2021/04/24 06:39:11;;;;;;;10.73;6.77;;;7.50;1.00;;;;;;5074275;28;20215;-81
2021/04/24 06:41:36;;;;;;;14.27;6.90;;;7.80;1.00;;;;;;5073262;28;20180;-78
2021/04/24 06:44:03;;;;;;;12.83;7.67;;;7.60;1.00;;;;;;5073389;28;20230;-82
2021/04/24 06:46:29;;;;;;;11.63;6.87;;;7.70;1.00;;;;;;5071940;28;20230;-81
2021/04/24 06:48:55;;;;;;;13.83;7.43;;;7.70;1.00;;;;;;5072767;28;20577;-80
2021/04/24 06:51:20;;;;;;;16.67;7.83;;;7.80;1.00;;;;;;5072485;28;20180;-80
2021/04/24 06:53:46;;;;;;;10.20;7.00;;;8.00;1.00;;;;;;5072900;28;20225;-82
2021/04/24 06:56:12;;;;;;;15.03;8.00;;;8.00;1.00;;;;;;5072654;28;20203;-80
2021/04/24 06:58:38;;;;;;;15.33;7.90;;;8.10;1.00;;;;;;5071582;28;20251;-81
2021/04/24 07:01:04;;;;;;;18.60;8.13;;;8.20;1.00;;;;;;5072745;28;20591;-81
2021/04/24 07:03:29;;;;;;;13.17;7.30;;;8.30;1.00;;;;;;5072799;28;20184;-79
2021/04/24 07:05:55;;;;;;;10.13;6.63;;;8.40;1.00;;;;;;5073082;28;20173;-81
2021/04/24 07:08:20;;;;;;;15.67;7.80;;;8.30;1.00;;;;;;5072019;28;20196;-76
2021/04/24 07:10:46;;;;;;;11.83;6.90;;;8.40;1.00;;;;;;5072412;28;20182;-80
2021/04/24 07:13:13;;;;;;;11.00;7.10;;;8.50;1.00;;;;;;5072726;28;20667;-78
2021/04/24 07:15:38;;;;;;;11.27;6.80;;;8.50;1.00;;;;;;5072151;28;20202;-78
2021/04/24 07:18:05;;;;;;;9.53;5.83;;;8.50;99.90;;;;;;5072253;28;20192;-79
2021/04/24 07:20:30;;;;;;;13.80;6.97;;;8.40;99.90;;;;;;5072644;28;20663;-79
2021/04/24 07:22:56;;;;;;;11.07;7.17;;;8.40;99.90;;;;;;5072480;28;20172;-81
2021/04/24 07:25:22;;;;;;;10.57;6.10;;;8.40;99.90;;;;;;5071577;28;20168;-75
2021/04/24 07:27:47;;;;;;;10.40;6.23;;;8.50;99.90;;;;;;5072458;28;20632;-77
2021/04/24 07:30:13;;;;;;;11.90;6.67;;;8.50;99.90;;;;;;5072555;28;20185;-79
2021/04/24 07:32:39;;;;;;;15.13;7.30;;;8.60;99.90;;;;;;5072478;28;20227;-78
2021/04/24 07:35:06;;;;;;;13.73;6.60;;;8.80;96.20;;;;;;5071816;28;20650;-80
2021/04/24 07:37:32;;;;;;;10.63;6.73;;;8.90;10.90;;;;;;5072509;28;20192;-80
2021/04/24 07:39:58;;;;;;;11.77;6.83;;;8.80;1.00;;;;;;5072521;28;20207;-81
2021/04/24 07:42:24;;;;;;;10.83;5.77;;;9.00;1.00;;;;;;5071766;28;20176;-81
2021/04/24 07:44:49;;;;;;;10.33;5.90;;;9.10;1.00;;;;;;5072358;28;20171;-83
2021/04/24 07:47:15;;;;;;;13.10;7.37;;;9.20;1.00;;;;;;5072443;28;20172;-83
2021/04/24 07:49:41;;;;;;;11.30;6.53;;;9.40;99.90;;;;;;5075223;28;20663;-79
2021/04/24 07:52:08;;;;;;;11.63;5.80;;;9.60;99.90;;;;;;5057457;28;20283;-81
2021/04/24 07:54:36;;;;;;;9.97;6.30;;;9.60;99.90;;;;;;5092324;28;20175;-81
2021/04/24 07:57:03;;;;;;;14.07;6.10;;;9.60;99.90;;;;;;5083357;28;20233;-81
2021/04/24 07:59:29;;;;;;;10.30;5.77;;;9.70;99.90;;;;;;5071235;28;20605;-78
2021/04/24 08:01:55;;;;;;;9.93;5.63;;;9.70;97.30;;;;;;5071315;28;20247;-82
2021/04/24 08:04:20;;;;;;;13.07;6.00;;;9.80;99.90;;;;;;5071285;28;20297;-77
2021/04/24 08:06:46;;;;;;;10.40;5.73;;;9.70;9.10;;;;;;5072778;28;20595;-79
2021/04/24 08:09:12;;;;;;;7.93;5.20;;;9.70;1.00;;;;;;5072071;28;20180;-81
2021/04/24 08:11:37;;;;;;;8.80;5.63;;;9.70;1.00;;;;;;5071355;28;20191;-78
2021/04/24 08:14:04;;;;;;;9.20;5.37;;;9.90;7.60;;;;;;5072396;28;20198;-80
2021/04/24 08:16:30;;;;;;;9.77;5.37;;;10.00;1.00;;;;;;5071900;28;20211;-80
2021/04/24 08:18:55;;;;;;;8.47;5.20;;;10.10;1.00;;;;;;5072425;28;20196;-83
2021/04/24 08:21:21;;;;;;;10.03;5.20;;;10.20;1.00;;;;;;5071642;28;20187;-77
2021/04/24 08:23:47;;;;;;;9.47;5.40;;;10.10;1.00;;;;;;5088870;28;20580;-81
2021/04/24 08:26:13;;;;;;;8.73;5.40;;;10.10;99.90;;;;;;5092307;28;20518;-81
2021/04/24 08:28:39;;;;;;;11.77;5.40;;;10.20;99.90;;;;;;5067039;28;20630;-82
2021/04/24 08:31:05;;;;;;;9.47;5.73;;;10.20;1.00;;;;;;5057575;28;20701;-79
2021/04/24 08:33:31;;;;;;;8.97;5.27;;;10.30;49.50;;;;;;5055392;28;20216;-80
2021/04/24 08:35:57;;;;;;;8.83;5.43;;;10.40;99.90;;;;;;5053094;28;20260;-81
2021/04/24 08:38:23;;;;;;;13.03;5.77;;;10.50;1.00;;;;;;5056721;28;20190;-80
2021/04/24 08:40:50;;;;;;;9.93;5.73;;;10.50;1.00;;;;;;5069892;28;20176;-78
2021/04/24 08:43:16;;;;;;;11.90;5.70;;;10.70;1.00;;;;;;5071701;28;20203;-82
2021/04/24 08:45:43;;;;;;;10.17;5.30;;;10.80;99.90;;;;;;5071424;28;20214;-77
2021/04/24 08:48:10;;;;;;;8.30;5.30;;;10.80;1.00;;;;;;5070134;28;20571;-78
2021/04/24 08:50:35;;;;;;;10.27;5.47;;;10.90;99.90;;;;;;5068869;28;20188;-76
2021/04/24 08:53:03;;;;;;;11.63;5.33;;;11.00;1.00;;;;;;5071418;28;20204;-78
2021/04/24 08:55:35;;;;;;;7.47;4.80;;;11.10;1.00;;;;;;5073900;28;20218;-79
2021/04/24 08:58:03;;;;;;;7.47;4.63;;;11.20;99.90;;;;;;5093275;28;20190;-77
2021/04/24 09:00:37;;;;;;;8.50;4.37;;;11.00;1.00;;;;;;5094993;28;20191;-82
2021/04/24 09:03:07;;;;;;;7.90;4.90;;;11.00;1.00;;;;;;5094194;28;20175;-79
2021/04/24 09:05:34;;;;;;;6.67;4.30;;;11.10;1.00;;;;;;5095105;28;20190;-75
2021/04/24 09:08:05;;;;;;;8.07;5.40;;;11.10;1.00;;;;;;5089957;28;20233;-79
2021/04/24 09:10:49;;;;;;;8.77;4.77;;;11.20;1.00;;;;;;5075188;28;20164;-82
2021/04/24 09:13:22;;;;;;;9.07;4.10;;;11.20;99.90;;;;;;5074104;28;20203;-82
2021/04/24 09:15:49;;;;;;;8.43;3.97;;;11.30;99.90;;;;;;5073802;28;20164;-81
2021/04/24 09:18:16;;;;;;;7.43;4.00;;;11.30;99.90;;;;;;5074373;28;20164;-80
2021/04/24 09:21:03;;;;;;;8.80;4.20;;;11.30;99.90;;;;;;5074787;28;20180;-84
2021/04/24 09:23:31;;;;;;;7.80;3.90;;;11.40;99.90;;;;;;5073017;28;20164;-82
2021/04/24 09:26:04;;;;;;;8.70;4.47;;;11.60;99.90;;;;;;5074783;28;20175;-82
2021/04/24 09:28:35;;;;;;;7.10;3.80;;;11.70;99.90;;;;;;5074575;28;20199;-79
2021/04/24 09:31:16;;;;;;;10.97;3.50;;;11.70;1.00;;;;;;5073413;28;20207;-79
2021/04/24 09:33:43;;;;;;;6.27;3.47;;;11.80;1.00;;;;;;5073979;28;20222;-78
2021/04/24 09:36:11;;;;;;;5.23;3.03;;;11.80;1.00;;;;;;5073964;28;20168;-80
2021/04/24 09:38:45;;;;;;;6.77;3.17;;;11.80;1.00;;;;;;5073947;28;20168;-78
2021/04/24 09:41:19;;;;;;;6.70;3.63;;;11.80;1.00;;;;;;5073477;28;20530;-80
2021/04/24 09:44:00;;;;;;;7.90;2.93;;;11.80;1.00;;;;;;5074046;28;20164;-79
2021/04/24 09:46:33;;;;;;;6.77;3.30;;;11.90;1.00;;;;;;5073661;28;20198;-82
2021/04/24 09:49:21;;;;;;;6.37;2.87;;;12.00;1.00;;;;;;5073896;28;20191;-78
2021/04/24 09:51:55;;;;;;;4.67;2.90;;;12.10;1.00;;;;;;5073458;28;20188;-78
2021/04/24 09:54:23;;;;;;;6.47;3.13;;;12.20;1.00;;;;;;5073868;28;20179;-79
2021/04/24 09:57:06;;;;;;;8.23;3.37;;;12.10;1.00;;;;;;5081997;28;20160;-80
2021/04/24 09:59:49;;;;;;;8.77;4.10;;;12.20;1.00;;;;;;5093177;28;20175;-78
2021/04/24 10:02:28;;;;;;;8.70;4.37;;;12.40;1.00;;;;;;5093560;28;20179;-78
2021/04/24 10:05:14;;;;;;;8.60;4.17;;;12.60;1.00;;;;;;5093428;28;20168;-77
2021/04/24 10:07:50;;;;;;;7.27;3.80;;;12.60;1.00;;;;;;5091506;28;20160;-78
2021/04/24 10:10:23;;;;;;;8.07;4.20;;;12.60;1.00;;;;;;5073115;28;20175;-77
2021/04/24 10:12:59;;;;;;;8.80;3.70;;;12.50;1.00;;;;;;5072883;28;20280;-80
2021/04/24 10:15:48;;;;;;;8.43;3.70;;;12.50;1.00;;;;;;5072552;28;20263;-79
2021/04/24 10:18:15;;;;;;;9.17;3.97;;;12.50;1.00;;;;;;5073072;28;20230;-83
2021/04/24 10:20:44;;;;;;;7.93;3.83;;;12.50;1.00;;;;;;5073295;28;20196;-79
2021/04/24 10:23:11;;;;;;;10.23;4.53;;;12.60;1.00;;;;;;5072708;28;20165;-82
2021/04/24 10:25:37;;;;;;;8.23;3.70;;;12.60;1.00;;;;;;5072819;28;20169;-80
2021/04/24 10:28:04;;;;;;;12.23;4.40;;;12.70;1.00;;;;;;5072582;28;20310;-80
2021/04/24 10:30:30;;;;;;;7.50;4.33;;;12.70;1.00;;;;;;5072663;28;20183;-79
2021/04/24 10:32:56;;;;;;;7.87;4.20;;;12.70;1.00;;;;;;5073152;28;20200;-77
2021/04/24 10:35:23;;;;;;;8.03;4.17;;;12.60;1.00;;;;;;5072179;28;20176;-78
2021/04/24 10:37:52;;;;;;;7.93;4.70;;;12.50;1.00;;;;;;5072252;28;20173;-78
2021/04/24 10:40:19;;;;;;;10.00;5.27;;;12.60;1.00;;;;;;5072207;28;20174;-80
2021/04/24 10:42:50;;;;;;;10.27;4.70;;;12.50;1.00;;;;;;5072030;28;20263;-79
2021/04/24 10:45:46;;;;;;;7.87;4.40;;;12.60;1.00;;;;;;5072580;28;20192;-82
2021/04/24 10:48:22;;;;;;;12.07;5.47;;;12.60;96.50;;;;;;5070939;28;20255;-80
2021/04/24 10:50:49;;;;;;;9.63;4.70;;;12.70;1.00;;;;;;5072472;28;20638;-81
2021/04/24 10:53:19;;;;;;;10.53;4.63;;;12.70;75.10;;;;;;5073022;28;20204;-79
2021/04/24 10:55:45;;;;;;;8.47;5.00;;;12.90;1.00;;;;;;5071676;28;20524;-80
2021/04/24 10:58:18;;;;;;;7.00;4.50;;;12.90;1.00;;;;;;5092696;28;20183;-81
2021/04/24 11:00:48;;;;;;;8.10;5.37;;;13.00;1.00;;;;;;5093161;28;20167;-81
2021/04/24 11:03:35;;;;;;;9.20;5.33;;;13.10;1.00;;;;;;5093079;28;20168;-81
2021/04/24 11:06:18;;;;;;;7.77;5.20;;;13.10;1.00;;;;;;5092644;28;20271;-79
2021/04/24 11:08:45;;;;;;;8.77;4.70;;;13.10;1.00;;;;;;5082274;28;20172;-80
2021/04/24 11:11:19;;;;;;;7.43;5.30;;;13.20;1.00;;;;;;5073992;28;20256;-80
2021/04/24 11:13:52;;;;;;;8.53;5.33;;;13.30;1.00;;;;;;5072080;28;20204;-80
2021/04/24 11:16:19;;;;;;;9.50;5.33;;;13.30;1.00;;;;;;5071594;28;20164;-79
2021/04/24 11:18:48;;;;;;;9.03;5.27;;;13.30;1.00;;;;;;5071414;28;20168;-79
2021/04/24 11:21:16;;;;;;;10.47;6.17;;;13.20;1.00;;;;;;5072318;28;20191;-80
2021/04/24 11:23:50;;;;;;;11.00;5.63;;;13.00;1.00;;;;;;5071869;28;20255;-79
2021/04/24 11:26:45;;;;;;;9.77;6.43;;;13.10;1.00;;;;;;5072690;28;20596;-81
2021/04/24 11:29:12;;;;;;;8.90;5.40;;;13.00;1.00;;;;;;5072461;28;20579;-80
2021/04/24 11:31:58;;;;;;;6.30;4.30;;;13.20;1.00;;;;;;5072439;28;20191;-80
2021/04/24 11:34:50;;;;;;;10.70;6.40;;;13.20;1.00;;;;;;5072305;28;20168;-81
2021/04/24 11:37:16;;;;;;;16.50;6.83;;;13.20;1.00;;;;;;5072487;28;20207;-80
2021/04/24 11:40:03;;;;;;;10.27;6.47;;;13.20;1.00;;;;;;5071303;28;20188;-83
2021/04/24 11:42:31;;;;;;;11.23;6.10;;;13.30;1.00;;;;;;5071880;28;20654;-80
2021/04/24 11:44:57;;;;;;;9.10;6.13;;;13.30;1.00;;;;;;5072358;28;20164;-82
2021/04/24 11:47:44;;;;;;;13.03;6.43;;;13.20;1.00;;;;;;5072073;28;20651;-81
2021/04/24 11:50:13;;;;;;;8.53;6.03;;;13.40;1.00;;;;;;5072060;28;20549;-82
2021/04/24 11:52:39;;;;;;;12.30;6.60;;;13.50;1.00;;;;;;5071831;28;20200;-80
2021/04/24 11:55:06;;;;;;;9.13;6.37;;;13.70;1.00;;;;;;5072114;28;20168;-80
2021/04/24 11:57:31;;;;;;;9.20;6.03;;;13.60;1.00;;;;;;5085806;28;20186;-80
2021/04/24 11:59:57;;;;;;;7.17;4.57;;;13.50;1.00;;;;;;5092072;28;20179;-80
2021/04/24 12:02:31;;;;;;;12.77;5.90;;;13.50;99.90;;;;;;5092060;28;20174;-81
2021/04/24 12:05:05;;;;;;;8.67;4.90;;;13.40;99.90;;;;;;5092118;28;20167;-77
2021/04/24 12:07:39;;;;;;;7.77;5.07;;;13.40;99.90;;;;;;5091763;28;20174;-81
2021/04/24 12:10:05;;;;;;;9.40;5.80;;;13.40;99.90;;;;;;5071824;28;20179;-80
2021/04/24 12:12:35;;;;;;;8.77;5.80;;;13.30;99.90;;;;;;5071560;28;20202;-78
2021/04/24 12:15:25;;;;;;;10.37;6.17;;;13.30;99.90;;;;;;5071787;28;20183;-80
2021/04/24 12:17:52;;;;;;;8.13;5.27;;;13.40;1.00;;;;;;5072046;28;20200;-81
2021/04/24 12:20:30;;;;;;;8.93;5.90;;;13.30;1.00;;;;;;5071415;28;20195;-80
2021/04/24 12:22:58;;;;;;;7.53;5.40;;;13.40;99.90;;;;;;5071669;28;20156;-81
2021/04/24 12:25:25;;;;;;;8.80;5.60;;;13.50;99.90;;;;;;5071146;28;20175;-81
2021/04/24 12:27:56;;;;;;;8.47;5.40;;;13.60;99.90;;;;;;5073074;28;20184;-78
2021/04/24 12:30:27;;;;;;;10.30;6.33;;;13.70;99.90;;;;;;5075416;28;20191;-80
2021/04/24 12:33:03;;;;;;;7.83;5.90;;;13.90;99.90;;;;;;5075365;28;20284;-79
2021/04/24 12:35:31;;;;;;;10.53;6.37;;;14.10;99.90;;;;;;5075467;28;20168;-78
2021/04/24 12:38:06;;;;;;;10.30;6.00;;;14.00;99.90;;;;;;5075691;28;20164;-80
2021/04/24 12:40:37;;;;;;;9.43;5.37;;;14.10;99.90;;;;;;5075230;28;20246;-78
2021/04/24 12:43:22;;;;;;;8.47;4.57;;;14.00;99.90;;;;;;5075268;28;20172;-79
2021/04/24 12:45:50;;;;;;;9.70;5.30;;;14.10;99.90;;;;;;5075442;28;20160;-80
2021/04/24 12:48:26;;;;;;;9.67;5.60;;;13.90;99.90;;;;;;5075231;28;20278;-80
2021/04/24 12:50:55;;;;;;;10.47;5.83;;;13.90;95.00;;;;;;5075665;28;20175;-79
2021/04/24 12:53:34;;;;;;;12.90;6.03;;;14.10;99.90;;;;;;5075376;28;20207;-79
2021/04/24 12:56:14;;;;;;;13.77;6.57;;;14.20;56.60;;;;;;5076494;28;20182;-80
2021/04/24 12:58:42;;;;;;;12.60;6.40;;;14.00;99.90;;;;;;5095419;28;20167;-80